Time,TemperatureF,DewpointF,PressureIn,WindDirection,WindDirectionDegrees,WindSpeedMPH,WindSpeedGustMPH,Humidity,HourlyPrecipIn,Conditions,Clouds,dailyrainin,SoftwareType,DateUTC
2015-07-04 00:00:00,59.0,40.0,-100.00,North,-9999,-999.9,-999.0,49,-99.99,,,-99.99,,2015-07-04 07:00:00,
2015-07-04 00:53:00,59.0,40.0,-100.00,North,-9999,-999.9,-999.0,49,-99.99,,,-99.99,,2015-07-04 07:53:00,
2015-07-04 01:00:00,58.0,42.0,-100.00,North,-9999,-999.9,-999.0,56,-99.99,,,-99.99,,2015-07-04 08:00:00,
2015-07-04 01:53:00,58.0,42.0,-100.00,North,-9999,-999.9,-999.0,56,-99.99,,,-99.99,,2015-07-04 08:53:00,
2015-07-04 02:00:00,58.0,44.0,-100.00,North,-9999,-999.9,-999.0,59,-99.99,,,-99.99,,2015-07-04 09:00:00,
2015-07-04 02:53:00,58.0,44.0,-100.00,North,-9999,-999.9,-999.0,59,-99.99,,,-99.99,,2015-07-04 09:53:00,
2015-07-04 03:00:00,58.0,38.0,-100.00,North,-9999,-999.9,-999.0,48,-99.99,,,-99.99,,2015-07-04 10:00:00,
2015-07-04 03:53:00,58.0,38.0,-100.00,North,-9999,-999.9,-999.0,48,-99.99,,,-99.99,,2015-07-04 10:53:00,
2015-07-04 04:00:00,57.0,38.0,-100.00,North,-9999,-999.9,-999.0,49,-99.99,,,-99.99,,2015-07-04 11:00:00,
2015-07-04 04:54:00,57.0,38.0,-100.00,North,-9999,-999.9,-999.0,49,-99.99,,,-99.99,,2015-07-04 11:54:00,
2015-07-04 05:00:00,56.0,37.0,-100.00,North,-9999,-999.9,-999.0,48,-99.99,,,-99.99,,2015-07-04 12:00:00,
2015-07-04 05:54:00,56.0,37.0,-100.00,North,-9999,-999.9,-999.0,48,-99.99,,,-99.99,,2015-07-04 12:54:00,
2015-07-04 06:00:00,58.0,28.0,-100.00,North,-9999,-999.9,-999.0,32,-99.99,,,-99.99,,2015-07-04 13:00:00,
2015-07-04 07:00:00,61.0,33.0,-100.00,North,-9999,-999.9,-999.0,35,-99.99,,,-99.99,,2015-07-04 14:00:00,
2015-07-04 07:53:00,61.0,33.0,-100.00,North,-9999,-999.9,-999.0,35,-99.99,,,-99.99,,2015-07-04 14:53:00,
2015-07-04 08:00:00,63.0,33.0,-100.00,North,-9999,-999.9,-999.0,32,-99.99,,,-99.99,,2015-07-04 15:00:00,
2015-07-04 08:54:00,63.0,33.0,-100.00,North,-9999,-999.9,-999.0,32,-99.99,,,-99.99,,2015-07-04 15:54:00,
2015-07-04 09:00:00,65.0,32.0,-100.00,North,-9999,-999.9,-999.0,29,-99.99,,,-99.99,,2015-07-04 16:00:00,
2015-07-04 09:54:00,65.0,32.0,-100.00,North,-9999,-999.9,-999.0,29,-99.99,,,-99.99,,2015-07-04 16:54:00,
2015-07-04 10:00:00,67.0,32.0,-100.00,North,-9999,-999.9,-999.0,27,-99.99,,,-99.99,,2015-07-04 17:00:00,
2015-07-04 10:54:00,67.0,32.0,-100.00,North,-9999,-999.9,-999.0,27,-99.99,,,-99.99,,2015-07-04 17:54:00,
2015-07-04 11:00:00,69.0,38.0,-100.00,North,-9999,-999.9,-999.0,32,-99.99,,,-99.99,,2015-07-04 18:00:00,
2015-07-04 11:54:00,69.0,38.0,-100.00,North,-9999,-999.9,-999.0,32,-99.99,,,-99.99,,2015-07-04 18:54:00,
2015-07-04 12:00:00,70.0,40.0,-100.00,North,-9999,-999.9,-999.0,34,-99.99,,,-99.99,,2015-07-04 19:00:00,
2015-07-04 12:54:00,70.0,40.0,-100.00,North,-9999,-999.9,-999.0,34,-99.99,,,-99.99,,2015-07-04 19:54:00,
2015-07-04 13:00:00,70.0,43.0,-100.00,North,-9999,-999.9,-999.0,37,-99.99,,,-99.99,,2015-07-04 20:00:00,